Olib — 9AA6266 — position and weather

sailwx.info

Track history (hours):
 
Tides and Currents Weather Stations Pressure Air Temp Water Temp Dewpoint Dewpoint Depression Visibility Wind Speed Wind Dir Waves Ship Positions

Olib

Last reported at 2014-Oct-20 16:31 UTC. Time now 2014-Oct-23 09:32 UTC.
Position N 55°37' E 015°32'.

Length 247 m; draft 8.3 m.

Type: Tanker. MMSI: 238252000.

Date/timePositionNaut miles runAvg speedWind from/ knotsBaromVisibWave heightAir tempDewpointWater temp
2014-Oct-20 16:31N 55°37' E 015°32'1111.4
2014-Oct-20 15:33N 55°33' E 015°14'1211.5
2014-Oct-20 14:33N 55°28' E 014°56'1211.9
2014-Oct-20 13:34N 55°22' E 014°38'1110.9
2014-Oct-20 12:33N 55°14' E 014°25'1110.8
2014-Oct-20 11:33N 55°05' E 014°14'1111.0
2014-Oct-20 10:34N 54°59' E 013°58'1211.8
2014-Oct-20 09:33N 54°55' E 013°38'4912.0
2014-Oct-20 05:30N 54°36' E 012°20'1111.6
2014-Oct-20 04:31N 54°26' E 012°11'1211.9
2014-Oct-20 03:32N 54°25' E 011°51'132 8.8
2014-Oct-19 12:30N 56°37' E 011°34'9 9.3
2014-Oct-19 11:33N 56°43' E 011°46'9 8.6
2014-Oct-19 10:33N 56°51' E 011°49'21 9.6
2014-Oct-19 08:19N 57°11' E 011°35'8 9.8
2014-Oct-19 07:33N 57°18' E 011°30'10 9.6
2014-Oct-19 06:33N 57°27' E 011°24'10 9.9
2014-Oct-19 05:34N 57°34' E 011°11'1110.6
2014-Oct-19 04:34N 57°42' E 010°56'9 9.1
2014-Oct-19 03:33N 57°40' E 010°39'0 0.2
2014-Oct-19 02:31N 57°41' E 010°39'0 0.0
2014-Oct-18 23:31N 57°41' E 010°40'2 1.9
2014-Oct-18 22:33N 57°41' E 010°43'5 5.1
2014-Oct-18 21:33N 57°45' E 010°50'1010.4
2014-Oct-18 20:33N 57°48' E 010°31'1211.9
2014-Oct-18 19:33N 57°46' E 010°09'1212.1
2014-Oct-18 18:32N 57°44' E 009°46'1212.0
2014-Oct-18 17:32N 57°43' E 009°24'24911.2
2014-Oct-17 19:20N 54°20' E 005°07'911.2
2014-Oct-17 18:33N 54°12' E 005°01'1111.1
2014-Oct-17 17:33N 54°03' E 004°49'16011.2
2014-Oct-17 03:18N 51°46' E 002°34'810.3
2014-Oct-17 02:31N 51°39' E 002°26'1010.3
2014-Oct-17 01:33N 51°31' E 002°17'1110.5
2014-Oct-17 00:33N 51°22' E 002°10'1010.4
2014-Oct-16 23:33N 51°13' E 002°01'1111.0
2014-Oct-16 22:34N 51°07' E 001°46'1111.0
2014-Oct-16 21:33N 50°59' E 001°34'1211.5
2014-Oct-16 20:33N 50°49' E 001°25'1111.4
2014-Oct-16 19:34N 50°39' E 001°16'1211.5
2014-Oct-16 18:29N 50°31' E 001°01'1111.4
2014-Oct-16 17:33N 50°28' E 000°45'1211.7
2014-Oct-16 16:33N 50°24' E 000°27'26810.6
2014-Oct-15 15:12N 48°06' W 005°24'711.0
2014-Oct-15 14:34N 47°60' W 005°21'  
2014-Oct-11 22:29N 43°24' W 003°04'  
Track history (hours):
 
Tides and Currents Weather Stations Pressure Air Temp Water Temp Dewpoint Dewpoint Depression Visibility Wind Speed Wind Dir Waves Ship Positions

Olib

Last reported at 2014-Oct-20 16:31 UTC. Time now 2014-Oct-23 09:32 UTC.
Position N 55°37' E 015°32'.

Length 247 m; draft 8.3 m.

Type: Tanker. MMSI: 238252000.

Date/timePositionNaut miles runAvg speedWind from/ knotsBaromVisibWave heightAir tempDewpointWater temp
2014-Oct-20 16:31N 55°37' E 015°32'1111.4
2014-Oct-20 15:33N 55°33' E 015°14'1211.5
2014-Oct-20 14:33N 55°28' E 014°56'1211.9
2014-Oct-20 13:34N 55°22' E 014°38'1110.9
2014-Oct-20 12:33N 55°14' E 014°25'1110.8
2014-Oct-20 11:33N 55°05' E 014°14'1111.0
2014-Oct-20 10:34N 54°59' E 013°58'1211.8
2014-Oct-20 09:33N 54°55' E 013°38'4912.0
2014-Oct-20 05:30N 54°36' E 012°20'1111.6
2014-Oct-20 04:31N 54°26' E 012°11'1211.9
2014-Oct-20 03:32N 54°25' E 011°51'132 8.8
2014-Oct-19 12:30N 56°37' E 011°34'9 9.3
2014-Oct-19 11:33N 56°43' E 011°46'9 8.6
2014-Oct-19 10:33N 56°51' E 011°49'21 9.6
2014-Oct-19 08:19N 57°11' E 011°35'8 9.8
2014-Oct-19 07:33N 57°18' E 011°30'10 9.6
2014-Oct-19 06:33N 57°27' E 011°24'10 9.9
2014-Oct-19 05:34N 57°34' E 011°11'1110.6
2014-Oct-19 04:34N 57°42' E 010°56'9 9.1
2014-Oct-19 03:33N 57°40' E 010°39'0 0.2
2014-Oct-19 02:31N 57°41' E 010°39'0 0.0
2014-Oct-18 23:31N 57°41' E 010°40'2 1.9
2014-Oct-18 22:33N 57°41' E 010°43'5 5.1
2014-Oct-18 21:33N 57°45' E 010°50'1010.4
2014-Oct-18 20:33N 57°48' E 010°31'1211.9
2014-Oct-18 19:33N 57°46' E 010°09'1212.1
2014-Oct-18 18:32N 57°44' E 009°46'1212.0
2014-Oct-18 17:32N 57°43' E 009°24'24911.2
2014-Oct-17 19:20N 54°20' E 005°07'911.2
2014-Oct-17 18:33N 54°12' E 005°01'1111.1
2014-Oct-17 17:33N 54°03' E 004°49'16011.2
2014-Oct-17 03:18N 51°46' E 002°34'810.3
2014-Oct-17 02:31N 51°39' E 002°26'1010.3
2014-Oct-17 01:33N 51°31' E 002°17'1110.5
2014-Oct-17 00:33N 51°22' E 002°10'1010.4
2014-Oct-16 23:33N 51°13' E 002°01'1111.0
2014-Oct-16 22:34N 51°07' E 001°46'1111.0
2014-Oct-16 21:33N 50°59' E 001°34'1211.5
2014-Oct-16 20:33N 50°49' E 001°25'1111.4
2014-Oct-16 19:34N 50°39' E 001°16'1211.5
2014-Oct-16 18:29N 50°31' E 001°01'1111.4
2014-Oct-16 17:33N 50°28' E 000°45'1211.7
2014-Oct-16 16:33N 50°24' E 000°27'26810.6
2014-Oct-15 15:12N 48°06' W 005°24'711.0
2014-Oct-15 14:34N 47°60' W 005°21'  
2014-Oct-11 22:29N 43°24' W 003°04'  

Dump ship's entire track history